Time;durP1;ratioP1;P1;durP2;ratioP2;P2;SDS_P1;SDS_P2;PMS_P1;PMS_P2;Temp;Humidity;BMP_temperature;BMP_pressure;BME280_temperature;BME280_humidity;BME280_pressure;Samples;Min_cycle;Max_cycle;Signal;HPM_P1;HPM_P2
2019/08/17 00:04:33;;;;;;;6.7;3.9;;;;;;;16.53;76.90137;959.8177;;;;
2019/08/17 00:06:50;;;;;;;5.6;3.7;;;;;;;16.37;77.30664;959.9623;;;;
2019/08/17 00:09:15;;;;;;;6.6;4;;;;;;;16.32;77.50684;959.9632;;;;
2019/08/17 00:11:40;;;;;;;6.3;3.8;;;;;;;16.37;77.17773;959.9352;;;;
2019/08/17 00:14:05;;;;;;;6;3.8;;;;;;;16.31;77.04004;959.959;;;;
2019/08/17 00:16:31;;;;;;;4.9;3.6;;;;;;;16.33;76.84375;960.0028;;;;
2019/08/17 00:18:56;;;;;;;6.7;3.9;;;;;;;16.22;77.33594;960.0359;;;;
2019/08/17 00:21:21;;;;;;;6.5;3.6;;;;;;;16.22;75.85742;960.0309;;;;
2019/08/17 00:23:46;;;;;;;6.5;3.6;;;;;;;16.27;76.62305;960.0825;;;;
2019/08/17 00:26:11;;;;;;;7.9;3.3;;;;;;;16.37;75.00879;960.0256;;;;
2019/08/17 00:28:37;;;;;;;6.5;3.6;;;;;;;16.24;76.26855;960.0349;;;;
2019/08/17 00:31:02;;;;;;;5.6;3.2;;;;;;;16.38;74.91699;960.0106;;;;
2019/08/17 00:33:27;;;;;;;8.2;3.6;;;;;;;16.4;75.6543;960.0214;;;;
2019/08/17 00:35:52;;;;;;;6.1;3.4;;;;;;;16.26;74.5918;960.0094;;;;
2019/08/17 00:38:18;;;;;;;6.5;3.6;;;;;;;16.29;74.78516;959.9879;;;;
2019/08/17 00:40:43;;;;;;;7.9;3.7;;;;;;;16.25;74.15918;959.9939;;;;
2019/08/17 00:43:08;;;;;;;5.9;3.6;;;;;;;16.36;74.14355;959.9369;;;;
2019/08/17 00:45:33;;;;;;;4.6;3.3;;;;;;;16.31;74.32324;959.8358;;;;
2019/08/17 00:47:58;;;;;;;6.6;3.4;;;;;;;16.33;75.38574;959.83;;;;
2019/08/17 00:50:23;;;;;;;7.1;3.3;;;;;;;16.27;75.30469;959.7988;;;;
2019/08/17 00:52:48;;;;;;;7.5;3.6;;;;;;;16.3;75.44922;959.7156;;;;
2019/08/17 00:55:13;;;;;;;6.1;3.6;;;;;;;16.34;75.64355;959.7346;;;;
2019/08/17 00:57:39;;;;;;;5.6;3.6;;;;;;;16.23;75.9873;959.7668;;;;
2019/08/17 01:00:04;;;;;;;5.8;3.4;;;;;;;16.23;75.90527;959.7093;;;;
2019/08/17 01:02:29;;;;;;;4.9;3.7;;;;;;;16.12;76.28125;959.7465;;;;
2019/08/17 01:04:54;;;;;;;6.4;4;;;;;;;16.07;76.34375;959.7534;;;;
2019/08/17 01:07:19;;;;;;;6.6;4;;;;;;;15.96;77.12695;959.6853;;;;
2019/08/17 01:09:45;;;;;;;7.3;4;;;;;;;15.9;76.9082;959.6985;;;;
2019/08/17 01:12:10;;;;;;;5.8;3.9;;;;;;;15.96;77.41992;959.6869;;;;
2019/08/17 01:14:35;;;;;;;5;3.7;;;;;;;16.05;76.83008;959.6538;;;;
2019/08/17 01:17:01;;;;;;;5.8;3.7;;;;;;;16.03;76.87305;959.6052;;;;
2019/08/17 01:19:26;;;;;;;5.1;3.4;;;;;;;16;77.35645;959.4838;;;;
2019/08/17 01:21:51;;;;;;;7;4;;;;;;;16.13;76.24805;959.4959;;;;
2019/08/17 01:24:16;;;;;;;6.5;3.5;;;;;;;15.96;77.57129;959.5093;;;;
2019/08/17 01:26:41;;;;;;;6;3.9;;;;;;;15.92;77.6123;959.5086;;;;
2019/08/17 01:29:07;;;;;;;5.3;3.3;;;;;;;15.94;77.71973;959.5399;;;;
2019/08/17 01:31:32;;;;;;;5.6;3.4;;;;;;;15.89;77.82715;959.6469;;;;
2019/08/17 01:33:57;;;;;;;6.6;3.4;;;;;;;15.82;78.16406;959.7675;;;;
2019/08/17 01:36:23;;;;;;;7.7;3.9;;;;;;;15.76;77.10449;959.8334;;;;
2019/08/17 01:38:48;;;;;;;6.4;3.6;;;;;;;15.76;77.02246;959.7742;;;;
2019/08/17 01:41:13;;;;;;;5.8;3.7;;;;;;;15.81;76.79883;959.6691;;;;
2019/08/17 01:43:39;;;;;;;6.5;3.7;;;;;;;15.94;76.6582;959.6688;;;;
2019/08/17 01:46:04;;;;;;;7.1;3.7;;;;;;;15.97;76.37305;959.6786;;;;
2019/08/17 01:48:29;;;;;;;5.4;3.5;;;;;;;15.88;76.56738;959.6721;;;;
2019/08/17 01:50:54;;;;;;;5.4;3.6;;;;;;;15.89;76.63867;959.692;;;;
2019/08/17 01:53:20;;;;;;;5.6;3.6;;;;;;;15.86;76.98145;959.6847;;;;
2019/08/17 01:55:45;;;;;;;5.8;3.7;;;;;;;15.86;77.09863;959.7011;;;;
2019/08/17 01:58:10;;;;;;;5.2;3.7;;;;;;;15.8;77.34473;959.7094;;;;
2019/08/17 02:00:36;;;;;;;5.7;3.5;;;;;;;15.79;77.40137;959.6459;;;;
2019/08/17 02:03:01;;;;;;;6.2;3.5;;;;;;;15.72;77.34277;959.6774;;;;
2019/08/17 02:05:26;;;;;;;6.9;3.7;;;;;;;15.8;77.61328;959.6437;;;;
2019/08/17 02:07:51;;;;;;;5.6;3.5;;;;;;;15.79;77.16699;959.6435;;;;
2019/08/17 02:10:16;;;;;;;5.7;3.4;;;;;;;15.72;77.42383;959.5837;;;;
2019/08/17 02:12:41;;;;;;;9.5;3.8;;;;;;;15.8;77.20508;959.5442;;;;
2019/08/17 02:15:06;;;;;;;4.5;3.4;;;;;;;15.81;76.6123;959.5294;;;;
2019/08/17 02:17:32;;;;;;;5.7;3.1;;;;;;;15.78;76.84082;959.4899;;;;
2019/08/17 02:19:57;;;;;;;6;3.4;;;;;;;15.85;76.31738;959.479;;;;
2019/08/17 02:22:22;;;;;;;4.3;3.2;;;;;;;15.84;77.09473;959.4233;;;;
2019/08/17 02:24:47;;;;;;;7.3;3.6;;;;;;;15.77;78.00391;959.338;;;;
2019/08/17 02:27:12;;;;;;;5;3.4;;;;;;;15.83;76.58105;959.2475;;;;
2019/08/17 02:29:37;;;;;;;5.5;3.4;;;;;;;15.74;77.28906;959.2172;;;;
2019/08/17 02:32:03;;;;;;;6.2;3.4;;;;;;;15.72;76.71387;959.241;;;;
2019/08/17 02:34:28;;;;;;;5.8;3.2;;;;;;;15.75;77.65137;959.2179;;;;
2019/08/17 02:36:53;;;;;;;5.3;3.5;;;;;;;15.68;77.23145;959.2075;;;;
2019/08/17 02:39:18;;;;;;;5.9;3.5;;;;;;;15.73;76.52832;959.2401;;;;
2019/08/17 02:41:43;;;;;;;5.9;3.3;;;;;;;15.67;77.04199;959.2465;;;;
2019/08/17 02:44:09;;;;;;;5.9;3;;;;;;;15.68;76.82324;959.2001;;;;
2019/08/17 02:46:34;;;;;;;5.5;3.2;;;;;;;15.8;76.97266;959.2296;;;;
2019/08/17 02:49:03;;;;;;;6.9;3.6;;;;;;;15.73;76.97168;959.176;;;;
2019/08/17 02:51:24;;;;;;;5.5;3.4;;;;;;;15.63;77.04688;959.1406;;;;
2019/08/17 02:53:50;;;;;;;5.2;3.4;;;;;;;15.57;76.86133;959.1513;;;;
2019/08/17 02:56:15;;;;;;;6.1;3.4;;;;;;;15.57;77.25684;959.1605;;;;
2019/08/17 02:58:40;;;;;;;5.2;3.4;;;;;;;15.56;77.33691;959.2263;;;;
2019/08/17 03:01:05;;;;;;;4.4;3.2;;;;;;;15.5;77.39551;959.2502;;;;
2019/08/17 03:03:31;;;;;;;5.3;3.3;;;;;;;15.5;77.12793;959.214;;;;
2019/08/17 03:05:56;;;;;;;5.2;3.5;;;;;;;15.53;76.9834;959.1884;;;;
2019/08/17 03:08:21;;;;;;;5.7;3.4;;;;;;;15.47;77.86719;959.2255;;;;
2019/08/17 03:10:46;;;;;;;5.9;3.5;;;;;;;15.39;78.32129;959.2352;;;;
2019/08/17 03:13:12;;;;;;;5.6;3.4;;;;;;;15.4;78.62402;959.2229;;;;
2019/08/17 03:15:37;;;;;;;5.8;3.5;;;;;;;15.49;78.03418;959.3098;;;;
2019/08/17 03:18:02;;;;;;;5.8;3.2;;;;;;;15.46;77.97168;959.2712;;;;
2019/08/17 03:20:28;;;;;;;4.9;3.4;;;;;;;15.34;78.54395;959.282;;;;
2019/08/17 03:22:53;;;;;;;5.4;3.3;;;;;;;15.32;78.98145;959.2544;;;;
2019/08/17 03:25:18;;;;;;;7.1;3.5;;;;;;;15.25;78.78223;959.337;;;;
2019/08/17 03:27:43;;;;;;;5.7;3;;;;;;;15.33;78.48242;959.3182;;;;
2019/08/17 03:30:08;;;;;;;5.7;3;;;;;;;15.28;78.43945;959.3214;;;;
2019/08/17 03:32:34;;;;;;;5.4;3.2;;;;;;;15.25;79.17969;959.4051;;;;
2019/08/17 03:34:59;;;;;;;5.3;3.3;;;;;;;15.17;79.08398;959.4431;;;;
2019/08/17 03:37:24;;;;;;;5.2;3.3;;;;;;;15.18;79.45605;959.4388;;;;
2019/08/17 03:39:49;;;;;;;6.5;3.2;;;;;;;15.15;79.23145;959.4322;;;;
2019/08/17 03:42:14;;;;;;;6.3;3.4;;;;;;;15.17;79.94434;959.4291;;;;
2019/08/17 03:44:40;;;;;;;5.5;3.1;;;;;;;15.27;79.3457;959.4331;;;;
2019/08/17 03:47:05;;;;;;;4.7;3.3;;;;;;;15.26;79.86621;959.3708;;;;
2019/08/17 03:49:30;;;;;;;4.6;2.9;;;;;;;15.33;78.94824;959.3396;;;;
2019/08/17 03:51:56;;;;;;;5.6;3.1;;;;;;;15.33;79.4834;959.2994;;;;
2019/08/17 03:54:21;;;;;;;5.6;3.1;;;;;;;15.24;78.79297;959.3092;;;;
2019/08/17 03:56:46;;;;;;;4.2;3.1;;;;;;;15.36;78.96484;959.2969;;;;
2019/08/17 03:59:11;;;;;;;6.2;3;;;;;;;15.37;78.98145;959.2877;;;;
2019/08/17 04:02:27;;;;;;;5.3;3;;;;;;;15.43;78.90918;959.3748;;;;
2019/08/17 04:04:53;;;;;;;5.1;3;;;;;;;15.46;78.47168;959.3969;;;;
2019/08/17 04:07:18;;;;;;;5.2;2.9;;;;;;;15.44;78.70117;959.3372;;;;
2019/08/17 04:09:43;;;;;;;9.4;3.7;;;;;;;15.32;79.63477;959.3183;;;;
2019/08/17 04:12:08;;;;;;;4.8;3.2;;;;;;;15.33;79.50684;959.2361;;;;
2019/08/17 04:14:33;;;;;;;6.6;3.2;;;;;;;15.29;79.39551;959.2477;;;;
2019/08/17 04:16:58;;;;;;;4.6;3.3;;;;;;;15.26;80.00684;959.1819;;;;
2019/08/17 04:19:23;;;;;;;5.6;3.4;;;;;;;15.21;80.20703;959.163;;;;
2019/08/17 04:21:48;;;;;;;7.7;3.5;;;;;;;15.18;80.42285;959.1589;;;;
2019/08/17 04:24:13;;;;;;;5.5;3.2;;;;;;;15.23;80.03516;959.1508;;;;
2019/08/17 04:26:39;;;;;;;5.2;3.4;;;;;;;15.21;79.7998;959.1506;;;;
2019/08/17 04:29:04;;;;;;;4.5;3;;;;;;;15.18;80.31641;959.2369;;;;
2019/08/17 04:31:29;;;;;;;4.6;3.3;;;;;;;15.29;79.34863;959.1861;;;;
2019/08/17 04:33:54;;;;;;;4.6;3.4;;;;;;;15.35;79.34668;959.1689;;;;
2019/08/17 04:36:19;;;;;;;6.3;3.2;;;;;;;15.35;78.89453;959.168;;;;
2019/08/17 04:38:44;;;;;;;5;3.3;;;;;;;15.29;80.2334;959.1344;;;;
2019/08/17 04:41:09;;;;;;;6;3;;;;;;;15.32;79.70508;959.1591;;;;
2019/08/17 04:43:34;;;;;;;4.6;3.1;;;;;;;15.37;79.83887;959.1719;;;;
2019/08/17 04:45:59;;;;;;;5.3;2.9;;;;;;;15.44;78.54883;959.1401;;;;
2019/08/17 04:48:24;;;;;;;6.4;3.2;;;;;;;15.42;79.0459;959.135;;;;
2019/08/17 04:50:50;;;;;;;4.7;3;;;;;;;15.48;79.17383;958.9774;;;;
2019/08/17 04:53:15;;;;;;;9;3.4;;;;;;;15.47;78.55371;958.938;;;;
2019/08/17 04:55:40;;;;;;;5.8;3.2;;;;;;;15.39;79.13574;958.9921;;;;
2019/08/17 04:58:05;;;;;;;6.8;3.2;;;;;;;15.3;80.52539;959.0488;;;;
2019/08/17 05:00:30;;;;;;;5.4;3.2;;;;;;;15.33;80.14648;958.9997;;;;
2019/08/17 05:02:55;;;;;;;4.8;3.2;;;;;;;15.4;79.45117;959.035;;;;
2019/08/17 05:05:20;;;;;;;5.8;3.1;;;;;;;15.35;79.89551;958.9512;;;;
2019/08/17 05:07:45;;;;;;;5.1;3.1;;;;;;;15.38;79.41211;958.9586;;;;
2019/08/17 05:10:10;;;;;;;4.9;3.2;;;;;;;15.4;79.28906;958.9348;;;;
2019/08/17 05:12:35;;;;;;;4.3;3;;;;;;;15.36;79.54688;958.9816;;;;
2019/08/17 05:15:00;;;;;;;5.2;3;;;;;;;15.38;79.43555;959.0151;;;;
2019/08/17 05:17:25;;;;;;;6.7;3.2;;;;;;;15.34;79.30078;959.0684;;;;
2019/08/17 05:19:51;;;;;;;6;2.9;;;;;;;15.45;79.44824;959.0964;;;;
2019/08/17 05:22:16;;;;;;;7.3;3.4;;;;;;;15.46;78.90234;959.1588;;;;
2019/08/17 05:24:41;;;;;;;5.4;3.2;;;;;;;15.43;79.96875;959.1875;;;;
2019/08/17 05:27:06;;;;;;;4.1;2.8;;;;;;;15.57;79.17871;959.2729;;;;
2019/08/17 05:29:31;;;;;;;6;3.6;;;;;;;15.55;78.36035;959.3328;;;;
2019/08/17 05:31:56;;;;;;;6.9;3.8;;;;;;;15.61;78.3252;959.3122;;;;
2019/08/17 05:34:21;;;;;;;6;2.9;;;;;;;15.65;78.71582;959.3132;;;;
2019/08/17 05:36:46;;;;;;;4.7;3;;;;;;;15.64;78.36426;959.3081;;;;
2019/08/17 05:39:11;;;;;;;5;2.7;;;;;;;15.7;77.69824;959.3519;;;;
2019/08/17 05:41:37;;;;;;;6.5;3;;;;;;;15.73;77.13477;959.3635;;;;
2019/08/17 05:44:02;;;;;;;6.4;3.2;;;;;;;15.82;76.54395;959.4996;;;;
2019/08/17 05:46:27;;;;;;;4.3;2.9;;;;;;;15.68;75.87891;959.5296;;;;
2019/08/17 05:48:52;;;;;;;7.4;3.3;;;;;;;15.82;76.125;959.512;;;;
2019/08/17 05:51:18;;;;;;;4.8;3.2;;;;;;;15.87;77.45117;959.4585;;;;
2019/08/17 05:53:43;;;;;;;5.2;3.1;;;;;;;16;76.55273;959.4582;;;;
2019/08/17 05:56:08;;;;;;;6;2.7;;;;;;;16.14;77.89453;959.5056;;;;
2019/08/17 05:58:33;;;;;;;5.5;3;;;;;;;16.31;76.45605;959.4994;;;;
2019/08/17 06:00:59;;;;;;;4.7;2.9;;;;;;;16.3;75.8457;959.505;;;;
2019/08/17 06:03:24;;;;;;;5.3;3;;;;;;;16.39;75.99316;959.4662;;;;
2019/08/17 06:05:49;;;;;;;7;2.8;;;;;;;16.51;74.80957;959.4598;;;;
2019/08/17 06:08:15;;;;;;;4.4;2.9;;;;;;;16.68;73.25195;959.3982;;;;
2019/08/17 06:10:40;;;;;;;7;2.9;;;;;;;16.76;73.01953;959.3586;;;;
2019/08/17 06:13:05;;;;;;;4.6;2.7;;;;;;;16.83;74.62012;959.447;;;;
2019/08/17 06:15:30;;;;;;;5.6;2.7;;;;;;;16.89;73.1709;959.5067;;;;
2019/08/17 06:17:55;;;;;;;5.1;2.6;;;;;;;16.99;72.70801;959.5624;;;;
2019/08/17 06:22:45;;;;;;;5.2;2.8;;;;;;;16.97;71.26855;959.6332;;;;
2019/08/17 06:25:18;;;;;;;3.8;2.5;;;;;;;17.06;72.13574;959.7101;;;;
2019/08/17 06:27:43;;;;;;;5.2;2.8;;;;;;;17.12;72.90625;959.7633;;;;
2019/08/17 06:30:08;;;;;;;4.7;2.4;;;;;;;17.15;74.20605;959.8447;;;;
2019/08/17 06:32:33;;;;;;;4.1;2.6;;;;;;;17.09;71.75488;959.8837;;;;
2019/08/17 06:34:58;;;;;;;5;2.6;;;;;;;17.21;71.98535;959.8367;;;;
2019/08/17 06:37:23;;;;;;;4.1;2.5;;;;;;;17.24;71.20703;959.8367;;;;
2019/08/17 06:39:48;;;;;;;4.3;2.2;;;;;;;17.34;72.18164;959.8342;;;;
2019/08/17 06:42:13;;;;;;;5.4;2.8;;;;;;;17.47;71.60645;959.8176;;;;
2019/08/17 06:44:38;;;;;;;4.4;2.8;;;;;;;17.51;71.53125;959.7952;;;;
2019/08/17 06:47:07;;;;;;;6.3;2.8;;;;;;;17.56;72.12305;959.7715;;;;
2019/08/17 06:49:32;;;;;;;4.6;2.6;;;;;;;17.64;71.55371;959.7841;;;;
2019/08/17 06:51:57;;;;;;;4.6;2.6;;;;;;;17.74;74.2002;959.8091;;;;
2019/08/17 06:54:22;;;;;;;4.5;2.7;;;;;;;17.89;72.72754;959.7698;;;;
2019/08/17 06:56:47;;;;;;;5.8;3.1;;;;;;;17.96;73.11426;959.8312;;;;
2019/08/17 06:59:12;;;;;;;5.6;2.8;;;;;;;18.05;72.81348;959.8254;;;;
2019/08/17 07:01:37;;;;;;;4.1;2.6;;;;;;;18.07;71.42285;959.7849;;;;
2019/08/17 07:04:03;;;;;;;5.1;2.8;;;;;;;18.13;72.13574;959.7612;;;;
2019/08/17 07:06:28;;;;;;;8.8;2.9;;;;;;;18.16;71.85938;959.7742;;;;
2019/08/17 07:08:53;;;;;;;5.1;3.1;;;;;;;18.3;72.59668;959.7798;;;;
2019/08/17 07:11:18;;;;;;;7;3.3;;;;;;;18.43;70.60254;959.7177;;;;
2019/08/17 07:13:43;;;;;;;2.9;2.5;;;;;;;18.42;71.25684;959.7225;;;;
2019/08/17 07:16:12;;;;;;;7.2;2.7;;;;;;;18.45;71.55469;959.6957;;;;
2019/08/17 07:18:37;;;;;;;5.4;3;;;;;;;18.59;70.42871;959.6727;;;;
2019/08/17 07:21:02;;;;;;;5.8;3.2;;;;;;;18.7;70.99707;959.7416;;;;
2019/08/17 07:23:27;;;;;;;5;2.3;;;;;;;18.59;67.91992;959.6478;;;;
2019/08/17 07:25:52;;;;;;;5.6;2.8;;;;;;;18.7;68.93457;959.6572;;;;
2019/08/17 07:28:23;;;;;;;5.2;2.5;;;;;;;18.62;68.5;959.5854;;;;
2019/08/17 07:30:43;;;;;;;5.1;2.5;;;;;;;18.7;70.17773;959.5878;;;;
2019/08/17 07:33:08;;;;;;;7.4;2.5;;;;;;;18.75;68.84766;959.6898;;;;
2019/08/17 07:35:34;;;;;;;4.7;2.5;;;;;;;18.82;68.55371;959.6702;;;;
2019/08/17 07:37:59;;;;;;;4.4;2.5;;;;;;;18.91;70.42188;959.6509;;;;
2019/08/17 07:40:23;;;;;;;4.9;2.8;;;;;;;19.01;70.89453;959.6253;;;;
2019/08/17 07:42:49;;;;;;;4.6;2.8;;;;;;;19.04;69.62012;959.5977;;;;
2019/08/17 07:45:14;;;;;;;5;2.8;;;;;;;19.03;69.6543;959.6252;;;;
2019/08/17 07:47:39;;;;;;;6.5;3.2;;;;;;;19.01;70.55469;959.6526;;;;
2019/08/17 07:50:05;;;;;;;4.3;2.6;;;;;;;19.1;69.60645;959.6721;;;;
2019/08/17 07:52:32;;;;;;;4.4;2.4;;;;;;;19.12;69.54004;959.5792;;;;
2019/08/17 07:54:57;;;;;;;5.7;3;;;;;;;19.14;71.10254;959.5037;;;;
2019/08/17 07:57:22;;;;;;;3.5;2.4;;;;;;;19.23;70.59082;959.584;;;;
2019/08/17 07:59:47;;;;;;;4.2;2.7;;;;;;;19.28;70.66797;959.5562;;;;
2019/08/17 08:02:12;;;;;;;4.8;2.4;;;;;;;19.43;68.94238;959.5108;;;;
2019/08/17 08:04:37;;;;;;;4.2;2.6;;;;;;;19.51;69.40137;959.4576;;;;
2019/08/17 08:07:02;;;;;;;5.9;2.7;;;;;;;19.61;69.52246;959.4485;;;;
2019/08/17 08:09:27;;;;;;;6.2;2.7;;;;;;;19.71;69.17578;959.467;;;;
2019/08/17 08:11:54;;;;;;;5.7;2.5;;;;;;;19.82;70.02539;959.5388;;;;
2019/08/17 08:14:18;;;;;;;5.6;2.6;;;;;;;19.82;67.29785;959.5255;;;;
2019/08/17 08:16:43;;;;;;;4.1;2.7;;;;;;;19.89;66.82715;959.5614;;;;
2019/08/17 08:20:42;;;;;;;4.4;2.6;;;;;;;20.1;66.54199;959.5503;;;;
2019/08/17 08:23:07;;;;;;;6.2;2.3;;;;;;;20.1;65.13086;959.6378;;;;
2019/08/17 08:25:32;;;;;;;5.4;2.6;;;;;;;20.14;64.34766;959.6101;;;;
2019/08/17 08:27:58;;;;;;;5.2;2.4;;;;;;;20.22;64.38379;959.5786;;;;
2019/08/17 08:30:23;;;;;;;4.3;2.4;;;;;;;20.27;64.62695;959.6165;;;;
2019/08/17 08:32:53;;;;;;;3.8;2.3;;;;;;;20.44;64.20313;959.6142;;;;
2019/08/17 08:35:13;;;;;;;3.2;2.1;;;;;;;20.51;63.73145;959.55;;;;
2019/08/17 08:37:38;;;;;;;4.4;2.5;;;;;;;20.65;63.85645;959.5559;;;;
2019/08/17 08:40:03;;;;;;;3.3;2.4;;;;;;;20.78;61.14258;959.5023;;;;
2019/08/17 08:42:28;;;;;;;3.9;2.1;;;;;;;20.87;60.07129;959.6065;;;;
2019/08/17 08:44:53;;;;;;;3.7;2.4;;;;;;;20.88;60.07227;959.5914;;;;
2019/08/17 08:47:18;;;;;;;3.8;2.2;;;;;;;20.98;59.99121;959.5438;;;;
2019/08/17 08:49:43;;;;;;;3.6;2.2;;;;;;;21.06;59.93164;959.5563;;;;
2019/08/17 08:52:08;;;;;;;5;2.4;;;;;;;21.14;58.43359;959.4755;;;;
2019/08/17 08:54:34;;;;;;;4.4;2.1;;;;;;;21.22;58.92773;959.4886;;;;
2019/08/17 08:56:59;;;;;;;4.1;2.3;;;;;;;21.37;58.66504;959.527;;;;
2019/08/17 08:59:24;;;;;;;5.2;2.5;;;;;;;21.4;59.45898;959.5097;;;;
2019/08/17 09:01:49;;;;;;;6.1;2.5;;;;;;;21.45;59.12402;959.5715;;;;
2019/08/17 09:04:14;;;;;;;3.3;2.1;;;;;;;21.35;59.29785;959.5637;;;;
2019/08/17 09:06:39;;;;;;;4.4;2.4;;;;;;;21.48;59.31641;959.6033;;;;
2019/08/17 09:09:05;;;;;;;4.3;2.6;;;;;;;21.52;59.53418;959.593;;;;
2019/08/17 09:11:30;;;;;;;3.7;2.4;;;;;;;21.47;59.44336;959.5703;;;;
2019/08/17 09:13:55;;;;;;;6;2.6;;;;;;;21.51;58.12793;959.5776;;;;
2019/08/17 09:16:20;;;;;;;5.2;2.4;;;;;;;21.26;58.94531;959.5614;;;;
2019/08/17 09:18:46;;;;;;;4.2;2.5;;;;;;;21.5;58.77539;959.5795;;;;
2019/08/17 09:21:11;;;;;;;6.4;2.7;;;;;;;21.5;58.59961;959.5303;;;;
2019/08/17 09:23:36;;;;;;;3.7;2.5;;;;;;;21.61;57.96484;959.5585;;;;
2019/08/17 09:26:01;;;;;;;5;2.5;;;;;;;21.47;58.51172;959.5222;;;;
2019/08/17 09:28:27;;;;;;;4.6;2.3;;;;;;;21.57;59.88281;959.5297;;;;
2019/08/17 09:30:52;;;;;;;5.1;2.5;;;;;;;21.69;58.18652;959.5359;;;;
2019/08/17 09:33:17;;;;;;;4.4;2.5;;;;;;;21.73;57.17676;959.4959;;;;
2019/08/17 09:35:42;;;;;;;3.5;2.3;;;;;;;21.87;57.47754;959.5381;;;;
2019/08/17 09:38:07;;;;;;;3.8;2.6;;;;;;;21.9;57.26953;959.4842;;;;
2019/08/17 09:40:32;;;;;;;4.3;2.5;;;;;;;21.96;56.33301;959.4703;;;;
2019/08/17 09:42:57;;;;;;;3.4;2.4;;;;;;;22.03;56.58887;959.486;;;;
2019/08/17 09:45:22;;;;;;;4.8;2.7;;;;;;;22.02;56.8125;959.5325;;;;
2019/08/17 09:47:47;;;;;;;3.1;2.6;;;;;;;21.94;56.81348;959.5206;;;;
2019/08/17 09:50:12;;;;;;;4.7;2.6;;;;;;;21.95;57.1709;959.5474;;;;
2019/08/17 09:52:37;;;;;;;4.8;2.4;;;;;;;21.98;58.12988;959.5717;;;;
2019/08/17 09:55:03;;;;;;;4.9;2.2;;;;;;;22.07;58.08496;959.57;;;;
2019/08/17 09:57:28;;;;;;;5.3;2.6;;;;;;;22.17;57.28027;959.5549;;;;
2019/08/17 09:59:53;;;;;;;5.4;2.5;;;;;;;22.25;55.88477;959.4478;;;;
2019/08/17 10:02:18;;;;;;;3.8;2.4;;;;;;;22.44;57.32715;959.4003;;;;
2019/08/17 10:04:43;;;;;;;4.3;2.4;;;;;;;22.4;57.76074;959.4238;;;;
2019/08/17 10:07:09;;;;;;;3.8;2.6;;;;;;;22.44;56.0625;959.4146;;;;
2019/08/17 10:09:34;;;;;;;5.2;2.6;;;;;;;22.43;57.25586;959.5101;;;;
2019/08/17 10:11:59;;;;;;;3.6;2.3;;;;;;;22.66;56.45703;959.5851;;;;
2019/08/17 10:14:24;;;;;;;5.9;2.4;;;;;;;22.77;55.08594;959.5688;;;;
2019/08/17 10:16:50;;;;;;;4.5;2.4;;;;;;;22.83;53.59082;959.5589;;;;
2019/08/17 10:19:15;;;;;;;5.3;2.3;;;;;;;23.05;53.98438;959.5301;;;;
2019/08/17 10:21:40;;;;;;;4.2;2.2;;;;;;;23.09;53.76465;959.4533;;;;
2019/08/17 10:24:05;;;;;;;3.8;2.1;;;;;;;23.24;53.15527;959.4728;;;;
2019/08/17 10:26:31;;;;;;;3.2;2;;;;;;;23.07;52.1748;959.4832;;;;
2019/08/17 10:28:56;;;;;;;3.4;2.1;;;;;;;23.14;51.85254;959.5382;;;;
2019/08/17 10:31:21;;;;;;;4.7;2.1;;;;;;;23.16;52.45801;959.5018;;;;
2019/08/17 10:33:46;;;;;;;4.2;2.1;;;;;;;23.27;52.30469;959.5026;;;;
2019/08/17 10:36:11;;;;;;;4.3;2.3;;;;;;;23.26;52.57617;959.4612;;;;
2019/08/17 10:38:36;;;;;;;3.6;2;;;;;;;23.42;52.70215;959.4645;;;;
2019/08/17 10:41:01;;;;;;;4.6;2.2;;;;;;;23.48;52.08008;959.4601;;;;
2019/08/17 10:43:27;;;;;;;3.7;2.2;;;;;;;23.42;51.97852;959.4763;;;;
2019/08/17 10:45:52;;;;;;;4;2.2;;;;;;;23.48;51.87891;959.4894;;;;
2019/08/17 10:48:17;;;;;;;3.2;2;;;;;;;23.58;52.31836;959.4171;;;;
2019/08/17 10:50:42;;;;;;;4.3;2.4;;;;;;;23.59;52.78027;959.4392;;;;
2019/08/17 10:53:07;;;;;;;4.4;2.3;;;;;;;23.6;52.97266;959.472;;;;
2019/08/17 10:55:32;;;;;;;3.8;2.1;;;;;;;23.49;57.60547;959.5125;;;;
2019/08/17 10:57:57;;;;;;;3.3;2;;;;;;;23.5;54.09863;959.4713;;;;
2019/08/17 11:00:22;;;;;;;5.4;2.4;;;;;;;23.64;51.76758;959.49;;;;
2019/08/17 11:02:47;;;;;;;3.7;2;;;;;;;23.71;51.66895;959.5063;;;;
2019/08/17 11:05:12;;;;;;;3.5;2.2;;;;;;;23.57;52.49414;959.514;;;;
2019/08/17 11:07:37;;;;;;;4;2.2;;;;;;;23.64;52.19434;959.5452;;;;
2019/08/17 11:10:02;;;;;;;4.4;2.4;;;;;;;23.53;52.62012;959.5145;;;;
2019/08/17 11:12:27;;;;;;;4.9;2.3;;;;;;;23.66;51.72266;959.4987;;;;
2019/08/17 11:14:52;;;;;;;3.7;2.1;;;;;;;23.67;51.97168;959.4235;;;;
2019/08/17 11:17:18;;;;;;;5.1;2.5;;;;;;;23.5;52.16699;959.3438;;;;
2019/08/17 11:19:43;;;;;;;4.4;2.3;;;;;;;23.52;53.10547;959.2859;;;;
2019/08/17 11:22:08;;;;;;;3.9;2.3;;;;;;;23.48;53.81055;959.2248;;;;
2019/08/17 11:24:33;;;;;;;4.6;2.5;;;;;;;23.6;52.37988;959.2252;;;;
2019/08/17 11:26:58;;;;;;;2.8;2;;;;;;;23.65;52.37402;959.2332;;;;
2019/08/17 11:29:23;;;;;;;3.1;1.9;;;;;;;23.74;52.06348;959.2233;;;;
2019/08/17 11:31:49;;;;;;;4;2.3;;;;;;;23.75;52.23047;959.2651;;;;
2019/08/17 11:34:14;;;;;;;4.9;2.3;;;;;;;23.74;53.07227;959.3156;;;;
2019/08/17 11:36:39;;;;;;;4.1;2.1;;;;;;;23.7;51.72754;959.3177;;;;
2019/08/17 11:39:05;;;;;;;4.7;2.2;;;;;;;23.76;50.9043;959.3816;;;;
2019/08/17 11:41:30;;;;;;;6;3.6;;;;;;;23.75;51.54297;959.3976;;;;
2019/08/17 11:43:55;;;;;;;4.8;2.2;;;;;;;23.88;51.22559;959.3535;;;;
2019/08/17 11:46:21;;;;;;;7.1;3.7;;;;;;;23.75;53.33301;959.287;;;;
2019/08/17 11:48:46;;;;;;;4.4;2.2;;;;;;;23.73;53.37891;959.2502;;;;
2019/08/17 11:51:11;;;;;;;8.2;4;;;;;;;23.81;52.79492;959.2234;;;;
2019/08/17 11:53:36;;;;;;;4.6;2.3;;;;;;;23.97;51.81641;959.2115;;;;
2019/08/17 11:56:02;;;;;;;5.4;2.4;;;;;;;23.92;52.4043;959.1247;;;;
2019/08/17 11:58:27;;;;;;;4.8;2.3;;;;;;;23.9;51.82129;959.0397;;;;
2019/08/17 12:00:53;;;;;;;3.5;2.1;;;;;;;23.95;51.67285;959.0261;;;;
2019/08/17 12:03:18;;;;;;;3.7;2.3;;;;;;;23.85;51.96875;958.9149;;;;
2019/08/17 12:05:43;;;;;;;4.6;2.1;;;;;;;23.87;51.87695;958.8535;;;;
2019/08/17 12:08:08;;;;;;;3.6;2.3;;;;;;;23.87;52.50586;958.8594;;;;
2019/08/17 12:10:33;;;;;;;6;3.5;;;;;;;23.79;55.16699;958.8585;;;;
2019/08/17 12:12:58;;;;;;;4.8;3.1;;;;;;;23.84;53.81934;958.8284;;;;
2019/08/17 12:15:24;;;;;;;8.2;4.4;;;;;;;23.85;54.91113;958.8217;;;;
2019/08/17 12:17:49;;;;;;;6.8;2.9;;;;;;;23.92;56.25;958.7881;;;;
2019/08/17 12:20:14;;;;;;;4.3;2.4;;;;;;;24.01;53.3418;958.7609;;;;
2019/08/17 12:22:40;;;;;;;5;2.1;;;;;;;24.1;52.1416;958.7585;;;;
2019/08/17 12:25:05;;;;;;;3;2;;;;;;;24.26;53.12207;958.7381;;;;
2019/08/17 12:27:30;;;;;;;3.7;2.1;;;;;;;24.22;51.90527;958.6429;;;;
2019/08/17 12:29:55;;;;;;;4;2.2;;;;;;;24.25;52.59766;958.63;;;;
2019/08/17 12:32:20;;;;;;;4.3;2.5;;;;;;;24.21;52.49805;958.6318;;;;
2019/08/17 12:34:46;;;;;;;4.2;2.1;;;;;;;24.37;50.42773;958.5538;;;;
2019/08/17 12:37:11;;;;;;;5.2;2.4;;;;;;;24.22;51.43066;958.4997;;;;
2019/08/17 12:39:36;;;;;;;5.3;2;;;;;;;24.17;49.64355;958.4365;;;;
2019/08/17 12:42:01;;;;;;;3.7;2;;;;;;;24.35;48.9873;958.4531;;;;
2019/08/17 12:44:26;;;;;;;4.7;2.4;;;;;;;24.28;50.34473;958.4285;;;;
2019/08/17 12:46:51;;;;;;;2.8;2.1;;;;;;;24.3;50.49023;958.4459;;;;
2019/08/17 12:49:17;;;;;;;3.1;2;;;;;;;24.43;50.50391;958.4323;;;;
2019/08/17 12:51:42;;;;;;;5.1;2.7;;;;;;;24.52;50.11133;958.3688;;;;
2019/08/17 12:54:07;;;;;;;5.6;2.3;;;;;;;24.52;49.75586;958.3895;;;;
2019/08/17 12:56:32;;;;;;;4.5;2.2;;;;;;;24.57;49.27246;958.4163;;;;
2019/08/17 12:58:57;;;;;;;3.3;2;;;;;;;24.52;50.93066;958.4072;;;;
2019/08/17 13:01:23;;;;;;;4.8;2.2;;;;;;;24.6;50.35742;958.4235;;;;
2019/08/17 13:03:48;;;;;;;3.7;2.2;;;;;;;24.5;48.58887;958.3839;;;;
2019/08/17 13:06:13;;;;;;;4.1;1.7;;;;;;;24.65;47.61914;958.4413;;;;
2019/08/17 13:08:38;;;;;;;3;2.2;;;;;;;24.7;48.24219;958.4235;;;;
2019/08/17 13:11:04;;;;;;;5.8;2.1;;;;;;;24.68;47.72852;958.4461;;;;
2019/08/17 13:13:29;;;;;;;3.3;1.8;;;;;;;24.55;44.93457;958.4523;;;;
2019/08/17 13:15:54;;;;;;;3.3;1.9;;;;;;;24.53;42.79395;958.505;;;;
2019/08/17 13:18:19;;;;;;;2.8;1.7;;;;;;;24.51;44.06348;958.4034;;;;
2019/08/17 13:20:44;;;;;;;3.2;1.8;;;;;;;24.44;42.97461;958.3102;;;;
2019/08/17 13:23:09;;;;;;;4.4;1.7;;;;;;;24.53;43.56543;958.3416;;;;
2019/08/17 13:25:34;;;;;;;4.3;1.8;;;;;;;24.58;41.55078;958.2399;;;;
2019/08/17 13:28:00;;;;;;;3.7;1.8;;;;;;;24.72;40.67188;958.2095;;;;
2019/08/17 13:30:25;;;;;;;2.4;1.6;;;;;;;24.88;42.18555;958.2131;;;;
2019/08/17 13:32:50;;;;;;;4.1;1.9;;;;;;;24.92;42.92676;958.1916;;;;
2019/08/17 13:35:15;;;;;;;4.3;1.9;;;;;;;25.01;41.5791;958.1665;;;;
2019/08/17 13:37:40;;;;;;;4;1.9;;;;;;;24.96;42.40625;958.1611;;;;
2019/08/17 13:40:05;;;;;;;2.9;1.7;;;;;;;24.91;42.4375;958.1237;;;;
2019/08/17 13:42:30;;;;;;;3.9;1.8;;;;;;;24.96;42.85938;958.0564;;;;
2019/08/17 13:44:55;;;;;;;3.9;1.7;;;;;;;25.01;42.69727;958.0305;;;;
2019/08/17 13:47:21;;;;;;;3.8;2.1;;;;;;;25.03;43.20996;958.0421;;;;
2019/08/17 13:49:47;;;;;;;4.1;1.9;;;;;;;25.01;43.03027;958.017;;;;
2019/08/17 13:52:12;;;;;;;3.6;1.8;;;;;;;25.06;42.07227;958.0087;;;;
2019/08/17 13:54:37;;;;;;;3.3;2;;;;;;;25.02;43.31641;958.0148;;;;
2019/08/17 13:57:02;;;;;;;2.8;1.8;;;;;;;24.97;42.27637;958.0769;;;;
2019/08/17 13:59:27;;;;;;;2.7;1.8;;;;;;;24.88;42.75684;958.1697;;;;
2019/08/17 14:01:52;;;;;;;3.9;1.8;;;;;;;24.82;43.45117;958.123;;;;
2019/08/17 14:04:18;;;;;;;4.2;1.8;;;;;;;24.73;44.5;958.08;;;;
2019/08/17 14:06:43;;;;;;;3.5;1.8;;;;;;;24.71;44.40332;958.0524;;;;
2019/08/17 14:09:08;;;;;;;4.5;2;;;;;;;24.64;44.75391;958.0041;;;;
2019/08/17 14:11:34;;;;;;;2.6;1.8;;;;;;;24.54;46.24121;958.0722;;;;
2019/08/17 14:13:59;;;;;;;3.2;1.7;;;;;;;24.63;44.52734;958.0405;;;;
2019/08/17 14:16:24;;;;;;;3.5;1.8;;;;;;;24.6;45.47461;958.0481;;;;
2019/08/17 14:18:49;;;;;;;5.3;2;;;;;;;24.66;45.52832;958.041;;;;
2019/08/17 14:21:14;;;;;;;4.1;1.8;;;;;;;24.69;46.21973;958.0848;;;;